Time;durP1;ratioP1;P1;durP2;ratioP2;P2;SDS_P1;SDS_P2;PMS_P1;PMS_P2;Temp;Humidity;BMP_temperature;BMP_pressure;BME280_temperature;BME280_humidity;BME280_pressure;Samples;Min_cycle;Max_cycle;Signal;HPM_P1;HPM_P2
2022/11/18 00:00:56;;;;;;;;;;;;;;;17.65;43.61;97694.75;4511862;31;34193;-88
2022/11/18 00:03:23;;;;;;;;;;;;;;;17.37;43.84;97689.75;4515423;31;34525;-87
2022/11/18 00:05:51;;;;;;;;;;;;;;;17.55;43.53;97680.31;4515155;31;34163;-89
2022/11/18 00:08:18;;;;;;;;;;;;;;;17.55;43.41;97689.03;4515763;31;33289;-88
2022/11/18 00:10:46;;;;;;;;;;;;;;;17.44;43.36;97678.13;4500142;31;34696;-87
2022/11/18 00:16:00;;;;;;;;;;;;;;;17.51;43.10;97671.72;4506584;31;34167;-90
2022/11/18 00:18:27;;;;;;;;;;;;;;;17.37;43.06;97674.88;4504290;31;33121;-88
2022/11/18 00:20:54;;;;;;;;;;;;;;;17.41;42.71;97676.47;4498441;31;34010;-87
2022/11/18 00:23:22;;;;;;;;;;;;;;;17.44;42.50;97681.59;4509870;31;34495;-87
2022/11/18 00:25:49;;;;;;;;;;;;;;;17.47;42.39;97676.22;4515581;31;34355;-91
2022/11/18 00:28:16;;;;;;;;;;;;;;;17.42;42.38;97669.44;4514065;31;33565;-89
2022/11/18 00:30:43;;;;;;;;;;;;;;;17.40;42.39;97660.81;4514599;31;33900;-87
2022/11/18 00:33:10;;;;;;;;;;;;;;;17.32;42.45;97663.72;4508204;31;34458;-88
2022/11/18 00:35:37;;;;;;;;;;;;;;;17.10;42.65;97658.44;4513937;31;33722;-87
2022/11/18 00:38:05;;;;;;;;;;;;;;;17.20;42.47;97659.81;4508906;31;33979;-89
2022/11/18 00:40:32;;;;;;;;;;;;;;;17.16;42.47;97660.84;4499502;31;35433;-87
2022/11/18 00:42:59;;;;;;;;;;;;;;;17.13;42.36;97652.25;4505505;31;33898;-88
2022/11/18 00:45:28;;;;;;;;;;;;;;;16.91;42.72;97666.13;4512831;31;34374;-90
2022/11/18 00:47:55;;;;;;;;;;;;;;;17.01;42.64;97654.41;4505828;31;34097;-88
2022/11/18 00:50:23;;;;;;;;;;;;;;;17.03;42.69;97654.34;4512296;31;34047;-89
2022/11/18 00:52:50;;;;;;;;;;;;;;;16.95;42.37;97661.63;4514387;31;35394;-88
2022/11/18 00:55:17;;;;;;;;;;;;;;;16.80;42.71;97668.28;4515022;31;34053;-87
2022/11/18 00:57:44;;;;;;;;;;;;;;;16.88;42.86;97673.25;4515439;31;32961;-89
2022/11/18 01:00:12;;;;;;;;;;;;;;;16.73;43.27;97665.03;4513994;31;34304;-88
2022/11/18 01:02:39;;;;;;;;;;;;;;;16.78;43.25;97670.97;4515292;31;34036;-87
2022/11/18 01:05:06;;;;;;;;;;;;;;;16.43;44.25;97674.78;4515127;31;34433;-89
2022/11/18 01:07:34;;;;;;;;;;;;;;;16.67;44.04;97672.22;4512213;31;33264;-86
2022/11/18 01:10:01;;;;;;;;;;;;;;;16.74;43.91;97658.91;4508366;31;34035;-85
2022/11/18 01:15:20;;;;;;;;;;;;;;;16.50;44.08;97644.03;4513042;31;33720;-85
2022/11/18 01:17:47;;;;;;;;;;;;;;;16.15;44.95;97642.66;4515232;31;33034;-85
2022/11/18 01:20:14;;;;;;;;;;;;;;;16.01;45.38;97633.50;4513981;31;33888;-87
2022/11/18 01:22:42;;;;;;;;;;;;;;;15.90;45.73;97635.63;4513880;31;35302;-87
2022/11/18 01:25:09;;;;;;;;;;;;;;;16.14;45.13;97627.84;4514791;31;35045;-86
2022/11/18 01:27:36;;;;;;;;;;;;;;;16.32;44.76;97616.75;4514728;31;34159;-86
2022/11/18 01:30:04;;;;;;;;;;;;;;;16.23;44.87;97617.09;4513977;31;34308;-86
2022/11/18 01:32:31;;;;;;;;;;;;;;;16.39;44.57;97618.25;4514386;31;35274;-87
2022/11/18 01:34:58;;;;;;;;;;;;;;;16.45;44.21;97618.03;4505092;31;34883;-86
2022/11/18 01:37:25;;;;;;;;;;;;;;;16.61;43.74;97617.50;4514571;31;33388;-86
2022/11/18 01:39:52;;;;;;;;;;;;;;;16.16;44.35;97626.91;4507295;31;34139;-86
2022/11/18 01:42:19;;;;;;;;;;;;;;;15.83;45.29;97631.50;4499047;31;33940;-87
2022/11/18 01:45:03;;;;;;;;;;;;;;;15.81;45.57;97638.53;4505664;31;34297;-86
2022/11/18 01:47:32;;;;;;;;;;;;;;;16.09;45.01;97627.16;4504244;31;33776;-85
2022/11/18 01:49:59;;;;;;;;;;;;;;;16.10;44.56;97627.12;4506069;31;34900;-87
2022/11/18 01:52:26;;;;;;;;;;;;;;;16.26;44.24;97635.28;4514589;31;34945;-87
2022/11/18 01:54:54;;;;;;;;;;;;;;;16.30;44.29;97648.19;4499508;31;34897;-85
2022/11/18 01:57:22;;;;;;;;;;;;;;;16.37;43.85;97659.31;4509529;31;33517;-86
2022/11/18 01:59:49;;;;;;;;;;;;;;;16.25;43.99;97654.47;4502392;31;33800;-86
2022/11/18 02:02:16;;;;;;;;;;;;;;;16.51;43.63;97651.81;4514909;31;34353;-86
2022/11/18 02:04:44;;;;;;;;;;;;;;;16.49;43.48;97639.72;4514736;31;33902;-87
2022/11/18 02:07:12;;;;;;;;;;;;;;;16.57;43.47;97639.44;4507656;31;33202;-85
2022/11/18 02:09:39;;;;;;;;;;;;;;;16.58;43.53;97630.69;4498418;31;33962;-86
2022/11/18 02:12:06;;;;;;;;;;;;;;;16.42;44.82;97628.59;4498611;31;34473;-85
2022/11/18 02:14:37;;;;;;;;;;;;;;;16.27;45.65;97626.53;4511207;31;33854;-86
2022/11/18 02:17:14;;;;;;;;;;;;;;;16.40;45.27;97622.59;4511028;31;33447;-86
2022/11/18 02:19:47;;;;;;;;;;;;;;;16.63;44.70;97613.03;4511175;31;34010;-87
2022/11/18 02:22:27;;;;;;;;;;;;;;;16.38;45.48;97616.56;4503374;31;34443;-84
2022/11/18 02:25:13;;;;;;;;;;;;;;;16.55;45.47;97618.56;4511682;31;33695;-87
2022/11/18 02:27:49;;;;;;;;;;;;;;;16.10;47.07;97615.78;4504795;31;34091;-87
2022/11/18 02:30:16;;;;;;;;;;;;;;;16.30;46.80;97608.13;4513699;31;34986;-85
2022/11/18 02:32:48;;;;;;;;;;;;;;;16.03;47.82;97613.41;4510739;31;35003;-86
2022/11/18 02:35:18;;;;;;;;;;;;;;;16.23;47.54;97604.88;4496827;31;34321;-87
2022/11/18 02:37:54;;;;;;;;;;;;;;;16.49;46.91;97598.72;4516361;31;34242;-87
2022/11/18 02:40:24;;;;;;;;;;;;;;;16.68;46.53;97584.97;4516039;31;35135;-86
2022/11/18 02:42:53;;;;;;;;;;;;;;;15.12;50.66;97575.41;4512222;31;35397;-86
2022/11/18 02:45:21;;;;;;;;;;;;;;;15.99;48.24;97564.75;4507760;31;34906;-86
2022/11/18 02:47:48;;;;;;;;;;;;;;;16.33;47.53;97563.56;4508954;31;34092;-87
2022/11/18 02:50:17;;;;;;;;;;;;;;;15.79;49.12;97564.56;4508277;31;34019;-87
2022/11/18 02:52:44;;;;;;;;;;;;;;;15.55;49.60;97566.22;4512930;31;34100;-85
2022/11/18 02:55:11;;;;;;;;;;;;;;;16.12;48.21;97566.94;4505665;31;34277;-87
2022/11/18 02:57:39;;;;;;;;;;;;;;;16.30;47.78;97569.75;4513291;31;33406;-87
2022/11/18 03:00:06;;;;;;;;;;;;;;;16.38;47.69;97572.09;4515119;31;34265;-86
2022/11/18 03:02:40;;;;;;;;;;;;;;;16.47;47.45;97570.91;4506791;31;34368;-86
2022/11/18 03:05:09;;;;;;;;;;;;;;;16.52;47.08;97575.06;4516202;31;34267;-86
2022/11/18 03:07:36;;;;;;;;;;;;;;;16.58;46.97;97567.88;4515184;31;33203;-86
2022/11/18 03:10:03;;;;;;;;;;;;;;;16.75;46.61;97570.78;4511228;31;34172;-86
2022/11/18 03:12:37;;;;;;;;;;;;;;;16.77;46.55;97574.16;4502063;31;35301;-87
2022/11/18 03:15:07;;;;;;;;;;;;;;;16.72;46.49;97579.56;4515581;31;35029;-86
2022/11/18 03:17:40;;;;;;;;;;;;;;;16.66;46.80;97581.53;4513777;31;33283;-86
2022/11/18 03:20:18;;;;;;;;;;;;;;;16.86;46.53;97586.06;4510997;31;33988;-87
2022/11/18 03:22:58;;;;;;;;;;;;;;;17.05;46.19;97589.69;4505851;31;34239;-88
2022/11/18 03:25:51;;;;;;;;;;;;;;;16.68;47.03;97588.44;4516373;31;33374;-87
2022/11/18 03:28:19;;;;;;;;;;;;;;;16.89;46.64;97586.78;4513197;31;33328;-87
2022/11/18 03:31:09;;;;;;;;;;;;;;;17.16;45.98;97599.72;4514495;31;34327;-85
2022/11/18 03:33:41;;;;;;;;;;;;;;;17.26;45.47;97601.94;4503406;31;34159;-86
2022/11/18 03:36:08;;;;;;;;;;;;;;;17.15;45.26;97595.41;4503722;31;33919;-86
2022/11/18 03:38:37;;;;;;;;;;;;;;;16.65;46.35;97590.31;4508539;31;33525;-87
2022/11/18 03:41:05;;;;;;;;;;;;;;;16.82;45.77;97587.97;4501219;31;34122;-86
2022/11/18 03:43:33;;;;;;;;;;;;;;;17.12;45.28;97601.66;4514557;31;34453;-86
2022/11/18 03:46:08;;;;;;;;;;;;;;;17.30;44.96;97610.53;4514473;31;34301;-86
2022/11/18 03:48:37;;;;;;;;;;;;;;;17.37;44.84;97608.53;4512539;31;33337;-85
2022/11/18 03:51:05;;;;;;;;;;;;;;;17.24;45.19;97611.62;4503478;31;34096;-86
2022/11/18 03:53:38;;;;;;;;;;;;;;;17.32;45.08;97613.13;4507109;31;35225;-86
2022/11/18 03:56:08;;;;;;;;;;;;;;;16.44;46.42;97602.38;4503245;31;34023;-86
2022/11/18 03:58:48;;;;;;;;;;;;;;;16.98;45.36;97591.69;4505947;31;33382;-87
2022/11/18 04:01:42;;;;;;;;;;;;;;;17.04;45.27;97587.97;4498141;31;33853;-86
2022/11/18 04:04:10;;;;;;;;;;;;;;;16.74;46.03;97590.88;4498305;31;33990;-86
2022/11/18 04:06:40;;;;;;;;;;;;;;;16.14;47.31;97591.25;4499746;31;33744;-87
2022/11/18 04:09:12;;;;;;;;;;;;;;;16.27;46.88;97584.69;4500227;31;33441;-87
2022/11/18 04:14:28;;;;;;;;;;;;;;;15.50;48.31;97566.38;4511598;31;34378;-88
2022/11/18 04:16:55;;;;;;;;;;;;;;;15.92;47.63;97547.56;4513852;31;34340;-87
2022/11/18 04:19:22;;;;;;;;;;;;;;;16.03;47.28;97540.22;4499702;31;33289;-86
2022/11/18 04:21:50;;;;;;;;;;;;;;;16.17;47.09;97533.63;4499482;31;34317;-86
2022/11/18 04:24:17;;;;;;;;;;;;;;;16.72;45.82;97534.22;4511753;31;33907;-88
2022/11/18 04:26:44;;;;;;;;;;;;;;;16.91;45.52;97527.41;4515259;31;33721;-86
2022/11/18 04:29:11;;;;;;;;;;;;;;;16.84;45.86;97519.84;4500429;31;33050;-88
2022/11/18 04:31:39;;;;;;;;;;;;;;;15.69;48.66;97524.84;4499455;31;33542;-88
2022/11/18 04:34:06;;;;;;;;;;;;;;;15.35;49.05;97535.53;4499518;31;34392;-86
2022/11/18 04:36:33;;;;;;;;;;;;;;;15.66;48.31;97534.53;4499641;31;34229;-88
2022/11/18 04:39:00;;;;;;;;;;;;;;;15.94;47.65;97526.59;4499422;31;34053;-86
2022/11/18 04:44:13;;;;;;;;;;;;;;;16.43;46.78;97543.16;4499402;31;34392;-88
2022/11/18 04:46:41;;;;;;;;;;;;;;;16.77;46.14;97558.47;4499669;31;33849;-88
2022/11/18 04:49:08;;;;;;;;;;;;;;;16.72;46.31;97544.69;4499333;31;33674;-86
2022/11/18 04:51:35;;;;;;;;;;;;;;;16.79;46.26;97564.50;4499682;31;34776;-84
2022/11/18 04:54:03;;;;;;;;;;;;;;;16.44;47.03;97561.41;4503948;31;34036;-88
2022/11/18 04:56:30;;;;;;;;;;;;;;;16.90;46.14;97570.19;4503998;31;35053;-87
2022/11/18 04:58:58;;;;;;;;;;;;;;;16.86;46.19;97570.34;4515084;31;34177;-88
2022/11/18 05:01:26;;;;;;;;;;;;;;;16.86;46.19;97570.34;4515356;31;34233;-86
2022/11/18 05:03:53;;;;;;;;;;;;;;;17.01;45.84;97565.41;4512918;31;34075;-88
2022/11/18 05:06:21;;;;;;;;;;;;;;;17.11;45.69;97551.94;4507305;31;34001;-88
2022/11/18 05:08:48;;;;;;;;;;;;;;;17.04;45.66;97553.94;4500112;31;33263;-87
2022/11/18 05:14:01;;;;;;;;;;;;;;;16.39;47.04;97537.16;4500275;31;34436;-88
2022/11/18 05:16:28;;;;;;;;;;;;;;;16.05;48.04;97533.16;4507812;31;34004;-87
2022/11/18 05:18:56;;;;;;;;;;;;;;;16.12;48.12;97532.94;4506199;31;33969;-88
2022/11/18 05:21:23;;;;;;;;;;;;;;;16.26;47.76;97541.16;4507294;31;34289;-88
2022/11/18 05:23:50;;;;;;;;;;;;;;;16.07;48.17;97530.50;4498995;31;35318;-88
2022/11/18 05:26:17;;;;;;;;;;;;;;;16.24;47.80;97527.28;4506286;31;34382;-87
2022/11/18 05:28:45;;;;;;;;;;;;;;;16.17;48.37;97533.63;4502431;31;33236;-88
2022/11/18 05:31:13;;;;;;;;;;;;;;;16.50;47.43;97534.16;4505923;31;34848;-86
2022/11/18 05:33:40;;;;;;;;;;;;;;;16.74;47.03;97533.28;4513432;31;34457;-88
2022/11/18 05:36:09;;;;;;;;;;;;;;;16.81;46.90;97543.50;4510804;31;35006;-87
2022/11/18 05:38:36;;;;;;;;;;;;;;;16.33;47.96;97532.19;4504491;31;34206;-87
2022/11/18 05:41:03;;;;;;;;;;;;;;;16.85;47.00;97540.72;4504703;31;34075;-86
2022/11/18 05:43:31;;;;;;;;;;;;;;;16.16;48.45;97537.16;4504779;31;34844;-87
2022/11/18 05:45:58;;;;;;;;;;;;;;;16.50;47.66;97527.16;4510169;31;33646;-87
2022/11/18 05:48:25;;;;;;;;;;;;;;;16.81;47.05;97539.13;4509012;31;33305;-87
2022/11/18 05:50:53;;;;;;;;;;;;;;;16.61;47.43;97532.00;4504975;31;34925;-88
2022/11/18 05:53:21;;;;;;;;;;;;;;;15.09;51.43;97538.97;4510029;31;34138;-88
2022/11/18 05:56:06;;;;;;;;;;;;;;;14.07;54.28;97551.47;4512790;31;34940;-88
2022/11/18 05:58:33;;;;;;;;;;;;;;;15.07;51.96;97541.59;4504972;31;33139;-88
2022/11/18 06:01:02;;;;;;;;;;;;;;;14.44;53.24;97542.62;4501129;31;33703;-89
2022/11/18 06:03:30;;;;;;;;;;;;;;;13.22;57.38;97561.41;4497867;31;34256;-88
2022/11/18 06:05:58;;;;;;;;;;;;;;;14.30;54.51;97553.44;4511623;31;34404;-87
2022/11/18 06:08:26;;;;;;;;;;;;;;;14.30;54.58;97557.78;4514006;31;34361;-88
2022/11/18 06:10:53;;;;;;;;;;;;;;;14.91;52.80;97549.97;4504333;31;34324;-86
2022/11/18 06:13:25;;;;;;;;;;;;;;;14.64;53.03;97541.22;4495035;31;35095;-88
2022/11/18 06:15:52;;;;;;;;;;;;;;;14.92;52.58;97547.28;4497311;31;34195;-86
2022/11/18 06:18:19;;;;;;;;;;;;;;;15.55;51.05;97542.69;4498047;31;33214;-87
2022/11/18 06:20:46;;;;;;;;;;;;;;;15.51;51.10;97539.34;4499962;31;34212;-88
2022/11/18 06:23:13;;;;;;;;;;;;;;;15.64;50.77;97531.94;4507935;31;35458;-88
2022/11/18 06:25:41;;;;;;;;;;;;;;;14.99;52.15;97534.91;4513568;31;34184;-87
2022/11/18 06:28:08;;;;;;;;;;;;;;;14.69;53.10;97534.09;4506472;31;33334;-87
2022/11/18 06:30:35;;;;;;;;;;;;;;;15.04;52.28;97525.22;4505992;31;34993;-87
2022/11/18 06:33:03;;;;;;;;;;;;;;;14.59;53.46;97526.56;4498440;31;34401;-88
2022/11/18 06:35:30;;;;;;;;;;;;;;;14.64;53.58;97522.97;4498356;31;35007;-86
2022/11/18 06:37:57;;;;;;;;;;;;;;;15.49;51.29;97517.66;4504660;31;34284;-86
2022/11/18 06:40:24;;;;;;;;;;;;;;;14.73;53.40;97520.91;4513695;31;34270;-87
2022/11/18 06:46:54;;;;;;;;;;;;;;;14.96;53.04;97540.22;4501703;31;34992;-88
2022/11/18 06:48:35;;;;;;;;;;;;;;;15.23;52.41;97543.75;4500796;31;32800;-88
2022/11/18 06:51:04;;;;;;;;;;;;;;;14.59;53.74;97539.59;4498957;31;34249;-86
2022/11/18 06:53:32;;;;;;;;;;;;;;;14.84;53.12;97544.91;4496815;31;34331;-87
2022/11/18 06:56:05;;;;;;;;;;;;;;;15.17;52.21;97543.94;4498140;31;34170;-88
2022/11/18 06:58:33;;;;;;;;;;;;;;;14.15;54.68;97550.41;4497000;31;33141;-88
2022/11/18 07:01:10;;;;;;;;;;;;;;;14.79;53.15;97538.16;4496863;31;33729;-88
2022/11/18 07:03:38;;;;;;;;;;;;;;;14.18;55.02;97538.13;4498937;31;32860;-88
2022/11/18 07:06:06;;;;;;;;;;;;;;;15.24;52.24;97545.47;4497895;31;33932;-87
2022/11/18 07:08:34;;;;;;;;;;;;;;;14.89;53.38;97552.63;4496693;31;33266;-87
2022/11/18 07:11:04;;;;;;;;;;;;;;;14.09;55.66;97546.19;4502616;31;34027;-87
2022/11/18 07:13:31;;;;;;;;;;;;;;;14.09;55.76;97543.59;4513525;31;34043;-88
2022/11/18 07:16:05;;;;;;;;;;;;;;;13.94;55.52;97528.38;4513708;31;33830;-86
2022/11/18 07:18:33;;;;;;;;;;;;;;;14.16;55.40;97529.50;4513547;31;33314;-87
2022/11/18 07:21:01;;;;;;;;;;;;;;;13.42;57.06;97535.78;4513135;31;34021;-88
2022/11/18 07:23:30;;;;;;;;;;;;;;;14.44;54.99;97518.31;4515975;31;34882;-88
2022/11/18 07:25:57;;;;;;;;;;;;;;;13.82;56.04;97522.59;4515836;31;34871;-86
2022/11/18 07:28:24;;;;;;;;;;;;;;;13.59;57.78;97523.19;4512789;31;33673;-86
2022/11/18 07:30:51;;;;;;;;;;;;;;;13.12;58.91;97527.78;4513288;31;34103;-86
2022/11/18 07:33:19;;;;;;;;;;;;;;;13.78;57.52;97517.50;4515672;31;34285;-88
2022/11/18 07:35:46;;;;;;;;;;;;;;;12.97;59.49;97527.31;4515868;31;34259;-87
2022/11/18 07:38:13;;;;;;;;;;;;;;;12.99;59.59;97534.16;4515825;31;33402;-86
2022/11/18 07:40:40;;;;;;;;;;;;;;;14.03;56.78;97528.12;4514821;31;33908;-88
2022/11/18 07:43:08;;;;;;;;;;;;;;;13.63;57.93;97532.63;4515560;31;34713;-87
2022/11/18 07:45:35;;;;;;;;;;;;;;;14.40;55.86;97519.28;4515960;31;34825;-87
2022/11/18 07:48:02;;;;;;;;;;;;;;;13.92;56.41;97515.41;4515804;31;33612;-88
2022/11/18 07:50:29;;;;;;;;;;;;;;;14.26;55.67;97506.66;4514588;31;35020;-88
2022/11/18 07:52:57;;;;;;;;;;;;;;;13.97;56.47;97515.25;4515574;31;35092;-88
2022/11/18 07:55:24;;;;;;;;;;;;;;;14.31;55.70;97508.22;4515510;31;34565;-88
2022/11/18 07:57:58;;;;;;;;;;;;;;;14.05;56.38;97514.19;4515949;31;33440;-87
2022/11/18 08:00:25;;;;;;;;;;;;;;;14.30;55.39;97509.13;4503409;31;34934;-87
2022/11/18 08:02:52;;;;;;;;;;;;;;;13.46;57.61;97516.59;4499799;31;34547;-88
2022/11/18 08:05:19;;;;;;;;;;;;;;;13.40;58.08;97519.34;4499886;31;33937;-88
2022/11/18 08:07:47;;;;;;;;;;;;;;;13.04;59.63;97521.94;4498626;31;33275;-87
2022/11/18 08:10:14;;;;;;;;;;;;;;;12.32;61.61;97520.91;4509028;31;34139;-88
2022/11/18 08:12:41;;;;;;;;;;;;;;;13.13;59.71;97510.44;4515394;31;34992;-85
2022/11/18 08:15:09;;;;;;;;;;;;;;;12.74;60.88;97509.63;4500054;31;34076;-88
2022/11/18 08:17:36;;;;;;;;;;;;;;;13.63;58.35;97498.78;4499495;31;33061;-88
2022/11/18 08:20:03;;;;;;;;;;;;;;;13.30;58.82;97497.06;4500517;31;34321;-88
2022/11/18 08:22:30;;;;;;;;;;;;;;;12.75;60.13;97500.94;4499597;31;34415;-88
2022/11/18 08:24:58;;;;;;;;;;;;;;;12.41;61.79;97499.91;4499490;31;34059;-85
2022/11/18 08:27:25;;;;;;;;;;;;;;;13.55;58.36;97492.06;4500047;31;33048;-88
2022/11/18 08:29:52;;;;;;;;;;;;;;;13.10;59.73;97495.75;4502924;31;34120;-88
2022/11/18 08:32:19;;;;;;;;;;;;;;;13.72;57.92;97496.84;4498662;31;35287;-87
2022/11/18 08:34:46;;;;;;;;;;;;;;;13.83;57.27;97487.84;4499612;31;34823;-88
2022/11/18 08:37:14;;;;;;;;;;;;;;;13.67;57.92;97488.28;4499471;31;34143;-87
2022/11/18 08:39:41;;;;;;;;;;;;;;;13.55;58.32;97473.84;4504830;31;33809;-88
2022/11/18 08:42:08;;;;;;;;;;;;;;;13.39;58.26;97468.19;4490311;31;781401;-87
2022/11/18 08:44:35;;;;;;;;;;;;;;;14.15;56.79;97464.41;4515602;31;33720;-87
2022/11/18 08:47:03;;;;;;;;;;;;;;;14.23;56.42;97467.62;4515468;31;34335;-88
2022/11/18 08:49:30;;;;;;;;;;;;;;;13.60;57.65;97466.78;4511108;31;33693;-88
2022/11/18 08:51:58;;;;;;;;;;;;;;;13.42;58.44;97452.50;4499408;31;34797;-87
2022/11/18 08:54:27;;;;;;;;;;;;;;;14.18;56.60;97446.91;4499140;31;34197;-87
2022/11/18 08:56:54;;;;;;;;;;;;;;;14.59;54.92;97452.69;4499373;31;33601;-88
2022/11/18 08:59:21;;;;;;;;;;;;;;;14.54;55.27;97450.19;4502186;31;34343;-88
2022/11/18 09:01:50;;;;;;;;;;;;;;;14.73;54.40;97452.25;4515112;31;34913;-87
2022/11/18 09:04:17;;;;;;;;;;;;;;;14.33;55.55;97459.50;4515227;31;33971;-88
2022/11/18 09:06:44;;;;;;;;;;;;;;;13.38;57.88;97467.34;4510350;31;34022;-87
2022/11/18 09:09:11;;;;;;;;;;;;;;;12.87;60.08;97474.62;4504284;31;34250;-87
2022/11/18 09:11:39;;;;;;;;;;;;;;;12.68;61.04;97478.56;4513499;31;33440;-86
2022/11/18 09:14:06;;;;;;;;;;;;;;;13.27;59.26;97484.13;4499506;31;34166;-87
2022/11/18 09:16:53;;;;;;;;;;;;;;;14.15;56.80;97475.66;4504808;31;33391;-87
2022/11/18 09:19:20;;;;;;;;;;;;;;;13.38;58.81;97471.69;4515257;31;34228;-87
2022/11/18 09:22:08;;;;;;;;;;;;;;;12.69;60.72;97469.84;4515225;31;35172;-86
2022/11/18 09:24:36;;;;;;;;;;;;;;;12.85;60.87;97466.03;4515219;31;34287;-87
2022/11/18 09:27:04;;;;;;;;;;;;;;;13.21;59.75;97458.22;4513518;31;34203;-87
2022/11/18 09:29:31;;;;;;;;;;;;;;;12.65;61.53;97451.75;4514474;31;35058;-88
2022/11/18 09:32:00;;;;;;;;;;;;;;;13.51;58.71;97441.81;4514973;31;34094;-87
2022/11/18 09:34:28;;;;;;;;;;;;;;;13.17;60.11;97440.97;4514947;31;34198;-88
2022/11/18 09:36:55;;;;;;;;;;;;;;;12.30;62.71;97443.88;4509454;31;33909;-87
2022/11/18 09:39:23;;;;;;;;;;;;;;;13.10;60.52;97430.69;4499137;31;34118;-88
2022/11/18 09:41:50;;;;;;;;;;;;;;;13.10;60.39;97429.84;4498525;31;34254;-88
2022/11/18 09:44:20;;;;;;;;;;;;;;;13.34;59.58;97438.84;4499136;31;33709;-87
2022/11/18 09:46:47;;;;;;;;;;;;;;;13.19;59.99;97439.19;4501786;31;33797;-86
2022/11/18 09:49:15;;;;;;;;;;;;;;;13.10;60.05;97443.72;4514545;31;34761;-88
2022/11/18 09:51:46;;;;;;;;;;;;;;;13.95;57.59;97424.13;4513736;31;34458;-88
2022/11/18 09:54:24;;;;;;;;;;;;;;;13.68;58.64;97411.91;4513444;31;33918;-86
2022/11/18 09:56:52;;;;;;;;;;;;;;;13.65;58.87;97409.37;4510078;31;33469;-88
2022/11/18 09:59:20;;;;;;;;;;;;;;;12.31;62.72;97406.59;4497722;31;35094;-87
2022/11/18 10:01:47;;;;;;;;;;;;;;;12.25;63.06;97396.34;4499129;31;34066;-87
2022/11/18 10:04:15;;;;;;;;;;;;;;;12.11;63.51;97389.69;4497635;31;34331;-88
2022/11/18 10:06:43;;;;;;;;;;;;;;;12.53;62.47;97389.63;4499680;31;34026;-88
2022/11/18 10:09:20;;;;;;;;;;;;;;;12.49;62.94;97397.53;4500033;31;34839;-87
2022/11/18 10:11:59;;;;;;;;;;;;;;;13.67;59.07;97384.13;4499019;31;35303;-86
2022/11/18 10:14:26;;;;;;;;;;;;;;;13.02;60.19;97391.03;4498735;31;35114;-86
2022/11/18 10:16:53;;;;;;;;;;;;;;;12.45;61.87;97403.69;4498889;31;34273;-88
2022/11/18 10:19:30;;;;;;;;;;;;;;;12.54;62.03;97403.47;4500509;31;34239;-87
2022/11/18 10:22:13;;;;;;;;;;;;;;;12.94;60.86;97403.38;4514558;31;34225;-87
2022/11/18 10:24:49;;;;;;;;;;;;;;;12.66;61.60;97398.84;4513408;31;34993;-88
2022/11/18 10:27:16;;;;;;;;;;;;;;;12.93;60.68;97386.06;4514871;31;33826;-88
2022/11/18 10:29:44;;;;;;;;;;;;;;;12.80;60.87;97392.44;4510349;31;34883;-86
2022/11/18 10:32:15;;;;;;;;;;;;;;;12.30;62.35;97387.56;4498153;31;34305;-85
2022/11/18 10:34:50;;;;;;;;;;;;;;;12.69;61.04;97392.72;4498567;31;34340;-86
2022/11/18 10:37:21;;;;;;;;;;;;;;;12.96;60.35;97373.00;4498876;31;33188;-88
2022/11/18 10:40:09;;;;;;;;;;;;;;;13.14;60.15;97382.94;4497162;31;35779;-88
2022/11/18 10:42:40;;;;;;;;;;;;;;;12.23;61.93;97387.72;4498572;31;35143;-88
2022/11/18 10:45:24;;;;;;;;;;;;;;;12.75;61.07;97386.50;4498367;31;34786;-87
2022/11/18 10:47:57;;;;;;;;;;;;;;;12.76;61.26;97388.22;4496824;31;33362;-87
2022/11/18 10:50:27;;;;;;;;;;;;;;;12.25;62.42;97373.81;4498383;31;33806;-87
2022/11/18 10:52:54;;;;;;;;;;;;;;;12.65;61.20;97371.16;4502307;31;34586;-87
2022/11/18 10:55:22;;;;;;;;;;;;;;;12.83;60.35;97368.97;4515470;31;34011;-86
2022/11/18 10:57:51;;;;;;;;;;;;;;;12.93;60.06;97377.41;4516354;31;34158;-87
2022/11/18 11:00:31;;;;;;;;;;;;;;;13.86;56.84;97375.78;4508749;31;33814;-87
2022/11/18 11:02:58;;;;;;;;;;;;;;;13.02;59.05;97375.41;4500041;31;34111;-87
2022/11/18 11:05:25;;;;;;;;;;;;;;;13.71;57.47;97372.72;4503356;31;35039;-87
2022/11/18 11:08:02;;;;;;;;;;;;;;;14.23;56.01;97366.84;4516266;31;33415;-87
2022/11/18 11:10:57;;;;;;;;;;;;;;;14.76;54.34;97364.31;4515287;31;35059;-87
2022/11/18 11:13:25;;;;;;;;;;;;;;;14.70;54.52;97368.88;4514468;31;35050;-87
2022/11/18 11:15:53;;;;;;;;;;;;;;;14.71;54.08;97375.81;4508416;31;33958;-88
2022/11/18 11:21:16;;;;;;;;;;;;;;;15.13;53.14;97377.91;4499145;31;34070;-87
2022/11/18 11:23:43;;;;;;;;;;;;;;;15.65;52.02;97381.28;4508745;31;34354;-87
2022/11/18 11:26:26;;;;;;;;;;;;;;;16.09;51.13;97374.44;4516046;31;34609;-87
2022/11/18 11:29:19;;;;;;;;;;;;;;;15.80;51.19;97376.41;4515825;31;34162;-87
2022/11/18 11:32:06;;;;;;;;;;;;;;;15.34;52.38;97379.75;4516147;31;34882;-87
2022/11/18 11:34:49;;;;;;;;;;;;;;;15.89;51.09;97382.19;4500241;31;32947;-87
2022/11/18 11:37:34;;;;;;;;;;;;;;;15.06;52.86;97370.25;4498851;31;35115;-88
2022/11/18 11:40:23;;;;;;;;;;;;;;;15.61;51.69;97361.38;4499969;31;33540;-87
2022/11/18 11:43:09;;;;;;;;;;;;;;;14.83;53.63;97364.97;4498374;31;34288;-87
2022/11/18 11:45:56;;;;;;;;;;;;;;;15.08;53.25;97365.84;4499878;31;34099;-87
2022/11/18 11:48:34;;;;;;;;;;;;;;;14.60;54.54;97368.31;4499782;31;34117;-88
2022/11/18 11:51:05;;;;;;;;;;;;;;;15.44;52.45;97362.00;4499313;31;33337;-86
2022/11/18 11:53:59;;;;;;;;;;;;;;;15.17;52.79;97364.69;4502043;31;34727;-87
2022/11/18 11:56:29;;;;;;;;;;;;;;;14.50;54.65;97366.91;4515957;31;35102;-87
2022/11/18 11:58:57;;;;;;;;;;;;;;;15.16;52.66;97360.38;4514384;31;34768;-87
2022/11/18 12:01:33;;;;;;;;;;;;;;;15.04;53.21;97353.81;4515568;31;33228;-88
2022/11/18 12:04:14;;;;;;;;;;;;;;;14.52;54.39;97360.75;4512955;31;34810;-87
2022/11/18 12:06:43;;;;;;;;;;;;;;;14.81;53.70;97365.03;4514494;31;33919;-87
2022/11/18 12:09:12;;;;;;;;;;;;;;;14.52;54.68;97371.19;4514307;31;34975;-88
2022/11/18 12:11:40;;;;;;;;;;;;;;;14.35;55.37;97363.84;4507104;31;34054;-86
2022/11/18 12:14:26;;;;;;;;;;;;;;;14.44;54.91;97357.50;4498142;31;34858;-88
2022/11/18 12:17:05;;;;;;;;;;;;;;;15.02;53.14;97354.75;4499820;31;35021;-87
2022/11/18 12:19:35;;;;;;;;;;;;;;;15.55;51.58;97354.66;4498612;31;34069;-87
2022/11/18 12:22:04;;;;;;;;;;;;;;;15.04;52.68;97345.12;4509314;31;34036;-87
2022/11/18 12:24:33;;;;;;;;;;;;;;;14.90;53.57;97337.78;4515688;31;34234;-87
2022/11/18 12:27:04;;;;;;;;;;;;;;;14.88;53.34;97334.34;4515545;31;34943;-86
2022/11/18 12:29:34;;;;;;;;;;;;;;;15.45;52.32;97320.16;4514145;31;34323;-87
2022/11/18 12:32:02;;;;;;;;;;;;;;;16.02;51.26;97318.06;4505962;31;34152;-87
2022/11/18 12:34:32;;;;;;;;;;;;;;;15.82;51.38;97321.44;4498501;31;34094;-86
2022/11/18 12:37:18;;;;;;;;;;;;;;;16.22;50.73;97325.16;4499854;31;35400;-87
2022/11/18 12:39:46;;;;;;;;;;;;;;;15.22;52.07;97320.97;4499732;31;34397;-86
2022/11/18 12:45:37;;;;;;;;;;;;;;;15.31;51.77;97317.22;4499648;31;34859;-86
2022/11/18 12:48:40;;;;;;;;;;;;;;;15.29;52.14;97322.47;4500081;31;35336;-87
2022/11/18 12:51:10;;;;;;;;;;;;;;;14.68;53.40;97324.59;4481285;32;34045;-88
2022/11/18 12:53:38;;;;;;;;;;;;;;;14.75;53.15;97327.84;4497025;31;33154;-87
2022/11/18 12:56:18;;;;;;;;;;;;;;;13.94;55.55;97330.38;4499265;31;34027;-87
2022/11/18 12:58:52;;;;;;;;;;;;;;;15.27;52.18;97326.91;4499266;31;33644;-87
2022/11/18 13:01:21;;;;;;;;;;;;;;;15.53;51.33;97333.81;4500105;31;35014;-88
2022/11/18 13:03:48;;;;;;;;;;;;;;;15.47;51.55;97336.62;4499336;31;33539;-87
2022/11/18 13:06:19;;;;;;;;;;;;;;;16.05;49.61;97350.16;4499738;31;34973;-86
2022/11/18 13:08:50;;;;;;;;;;;;;;;16.13;49.43;97352.50;4499531;31;34318;-88
2022/11/18 13:19:35;;;;;;;;;;;;;;;16.39;48.74;97363.72;4511028;31;35053;-87
2022/11/18 13:24:50;;;;;;;;;;;;;;;16.45;47.96;97366.94;4499340;31;33229;-88
2022/11/18 13:27:21;;;;;;;;;;;;;;;15.97;49.34;97370.53;4497961;31;35066;-87
2022/11/18 13:29:54;;;;;;;;;;;;;;;16.25;48.68;97378.19;4497966;31;34050;-89
2022/11/18 13:32:22;;;;;;;;;;;;;;;16.28;48.74;97379.81;4498361;31;34078;-87
2022/11/18 13:34:50;;;;;;;;;;;;;;;16.34;48.53;97379.59;4497990;31;33476;-87
2022/11/18 13:37:21;;;;;;;;;;;;;;;16.02;49.44;97381.69;4497857;31;33954;-88